createdAt,value
2023-04-09T00:02:06.541Z,6.68
2023-04-09T00:05:48.284Z,7.10
2023-04-09T00:09:30.444Z,7.75
2023-04-09T00:13:12.230Z,7.30
2023-04-09T00:16:54.635Z,7.15
2023-04-09T00:20:36.594Z,7.32
2023-04-09T00:24:18.488Z,7.28
2023-04-09T00:28:00.230Z,6.47
2023-04-09T00:31:42.082Z,6.80
2023-04-09T00:35:24.536Z,7.30
2023-04-09T00:39:06.258Z,7.20
2023-04-09T00:42:48.138Z,7.63
2023-04-09T00:46:31.134Z,7.55
2023-04-09T00:50:12.936Z,7.30
2023-04-09T00:53:55.971Z,8.10
2023-04-09T00:57:37.956Z,8.35
2023-04-09T01:01:19.724Z,8.32
2023-04-09T01:05:01.585Z,7.75
2023-04-09T01:09:01.586Z,8.95
2023-04-09T01:13:27.874Z,9.18
2023-04-09T01:17:48.324Z,9.45
2023-04-09T01:21:32.587Z,9.48
2023-04-09T01:25:53.037Z,9.88
2023-04-09T01:29:47.185Z,9.90
2023-04-09T01:33:30.983Z,10.95
2023-04-09T01:37:13.625Z,11.35
2023-04-09T01:40:57.446Z,11.57
2023-04-09T01:44:41.526Z,10.98
2023-04-09T01:48:24.369Z,11.10
2023-04-09T01:52:06.830Z,10.70
2023-04-09T01:55:48.577Z,11.20
2023-04-09T01:59:30.334Z,11.70
2023-04-09T02:03:23.341Z,11.82
2023-04-09T02:07:06.890Z,10.98
2023-04-09T02:10:55.403Z,10.90
2023-04-09T02:14:38.304Z,11.18
2023-04-09T02:18:24.797Z,10.57
2023-04-09T02:22:06.582Z,10.65
2023-04-09T02:25:48.521Z,10.93
2023-04-09T02:29:31.120Z,11.07
2023-04-09T02:33:12.845Z,10.68
2023-04-09T02:36:54.586Z,11.30
2023-04-09T02:40:36.279Z,11.07
2023-04-09T02:44:18.030Z,11.63
2023-04-09T02:47:59.744Z,11.38
2023-04-09T02:51:41.479Z,11.68
2023-04-09T02:55:23.300Z,11.35
2023-04-09T02:59:05.025Z,11.30
2023-04-09T03:02:46.842Z,12.00
2023-04-09T03:06:28.772Z,11.65
2023-04-09T03:10:11.162Z,10.80
2023-04-09T03:13:52.905Z,11.90
2023-04-09T03:17:34.693Z,11.77
2023-04-09T03:21:16.580Z,11.80
2023-04-09T03:24:58.273Z,12.55
2023-04-09T03:28:40.025Z,12.75
2023-04-09T03:32:21.741Z,11.32
2023-04-09T03:36:03.765Z,11.77
2023-04-09T03:39:45.533Z,11.90
2023-04-09T03:43:27.428Z,11.38
2023-04-09T03:47:09.152Z,11.52
2023-04-09T03:50:50.907Z,10.70
2023-04-09T03:54:32.997Z,11.68
2023-04-09T03:58:14.693Z,11.50
2023-04-09T04:01:56.641Z,11.88
2023-04-09T04:05:38.353Z,11.07
2023-04-09T04:09:20.156Z,11.57
2023-04-09T04:13:02.386Z,12.50
2023-04-09T04:16:44.225Z,11.52
2023-04-09T04:20:26.559Z,11.20
2023-04-09T04:24:08.298Z,11.48
2023-04-09T04:27:49.986Z,11.93
2023-04-09T04:31:31.763Z,12.18
2023-04-09T04:35:13.677Z,12.32
2023-04-09T04:38:55.480Z,11.57
2023-04-09T04:42:37.291Z,12.30
2023-04-09T04:46:20.567Z,12.15
2023-04-09T04:50:02.543Z,11.70
2023-04-09T04:53:44.279Z,11.95
2023-04-09T04:57:25.981Z,12.52
2023-04-09T05:01:07.913Z,11.98
2023-04-09T05:04:49.638Z,11.52
2023-04-09T05:08:31.764Z,12.02
2023-04-09T05:12:15.144Z,13.07
2023-04-09T05:15:56.846Z,13.07
2023-04-09T05:19:38.608Z,12.30
2023-04-09T05:23:20.332Z,12.40
2023-04-09T05:27:02.057Z,11.88
2023-04-09T05:30:47.440Z,12.88
2023-04-09T05:34:29.352Z,12.15
2023-04-09T05:38:11.201Z,12.30
2023-04-09T05:41:52.976Z,12.63
2023-04-09T05:45:34.680Z,12.32
2023-04-09T05:49:16.426Z,12.38
2023-04-09T05:52:58.142Z,12.85
2023-04-09T05:56:39.876Z,15.43
2023-04-09T06:00:21.997Z,17.85
2023-04-09T06:04:04.025Z,17.73
2023-04-09T06:07:46.186Z,18.70
2023-04-09T06:11:27.935Z,19.33
2023-04-09T06:15:10.233Z,20.10
2023-04-09T06:18:54.473Z,19.77
2023-04-09T06:22:36.352Z,20.75
2023-04-09T06:26:18.038Z,22.52
2023-04-09T06:29:59.745Z,23.13
2023-04-09T06:33:41.473Z,22.42
2023-04-09T06:37:23.154Z,24.40
2023-04-09T06:41:08.346Z,24.35
2023-04-09T06:44:50.534Z,25.20
2023-04-09T06:48:32.455Z,23.40
2023-04-09T06:52:14.158Z,24.65
2023-04-09T06:55:57.092Z,26.42
2023-04-09T06:59:38.995Z,26.08
2023-04-09T07:03:21.152Z,24.95
2023-04-09T07:07:03.165Z,25.40
2023-04-09T07:10:47.270Z,26.33
2023-04-09T07:14:29.013Z,26.40
2023-04-09T07:18:11.131Z,24.63
2023-04-09T07:21:52.954Z,26.90
2023-04-09T07:25:34.669Z,26.67
2023-04-09T07:29:16.346Z,26.92
2023-04-09T07:32:58.269Z,26.33
2023-04-09T07:36:41.236Z,25.60
2023-04-09T07:40:23.198Z,26.67
2023-04-09T07:44:06.388Z,28.05
2023-04-09T07:47:48.443Z,27.00
2023-04-09T07:51:31.464Z,28.45
2023-04-09T07:55:13.172Z,28.48
2023-04-09T07:58:55.166Z,27.73
2023-04-09T08:02:36.975Z,27.80
2023-04-09T08:06:18.742Z,26.38
2023-04-09T08:10:00.418Z,24.95
2023-04-09T08:13:42.155Z,27.85
2023-04-09T08:17:24.600Z,25.05
2023-04-09T08:21:07.100Z,24.02
2023-04-09T08:24:54.053Z,23.85
2023-04-09T08:28:35.784Z,24.30
2023-04-09T08:32:17.705Z,23.58
2023-04-09T08:36:00.842Z,23.10
2023-04-09T08:39:44.513Z,23.40
2023-04-09T08:43:41.953Z,24.20
2023-04-09T08:47:31.075Z,22.02
2023-04-09T08:51:17.031Z,21.60
2023-04-09T08:54:58.781Z,21.45
2023-04-09T08:58:45.298Z,22.50
2023-04-09T09:02:27.107Z,23.02
2023-04-09T09:06:22.013Z,21.95
2023-04-09T09:10:04.551Z,22.42
2023-04-09T09:13:46.393Z,23.08
2023-04-09T09:17:28.246Z,23.42
2023-04-09T09:21:14.748Z,20.98
2023-04-09T09:24:57.409Z,21.00
2023-04-09T09:28:39.220Z,20.35
2023-04-09T09:32:23.466Z,19.52
2023-04-09T09:36:05.694Z,19.65
2023-04-09T09:39:47.457Z,17.58
2023-04-09T09:43:41.244Z,17.80
2023-04-09T09:47:25.189Z,18.65
2023-04-09T09:51:11.812Z,18.20
2023-04-09T09:54:55.786Z,17.80
2023-04-09T09:58:54.833Z,16.67
2023-04-09T10:02:47.677Z,17.27
2023-04-09T10:06:30.852Z,15.75
2023-04-09T10:10:12.647Z,15.90
2023-04-09T10:13:58.847Z,14.43
2023-04-09T10:17:40.956Z,14.45
2023-04-09T10:21:25.453Z,15.20
2023-04-09T10:25:08.092Z,14.95
2023-04-09T10:29:06.989Z,12.57
2023-04-09T10:32:48.708Z,12.02
2023-04-09T10:36:31.835Z,13.15
2023-04-09T10:40:20.509Z,13.40
2023-04-09T10:44:06.573Z,11.05
2023-04-09T10:47:51.609Z,10.65
2023-04-09T10:51:38.796Z,11.02
2023-04-09T10:55:39.544Z,9.53
2023-04-09T10:59:21.260Z,11.35
2023-04-09T11:03:04.248Z,10.00
2023-04-09T11:06:47.418Z,10.10
2023-04-09T11:10:29.347Z,10.40
2023-04-09T11:14:11.107Z,9.00
2023-04-09T11:17:53.191Z,8.65
2023-04-09T11:21:36.332Z,9.55
2023-04-09T11:25:22.925Z,8.60
2023-04-09T11:29:09.176Z,8.23
2023-04-09T11:32:51.247Z,8.13
2023-04-09T11:36:34.804Z,8.35
2023-04-09T11:40:24.843Z,7.80
2023-04-09T11:44:08.161Z,8.05
2023-04-09T11:47:50.195Z,7.72
2023-04-09T11:51:32.692Z,7.65
2023-04-09T11:55:27.395Z,7.60
2023-04-09T11:59:10.073Z,6.38
2023-04-09T12:02:59.668Z,6.63
2023-04-09T12:06:42.629Z,6.70
2023-04-09T12:10:32.500Z,6.00
2023-04-09T12:14:18.581Z,5.75
2023-04-09T12:18:01.054Z,5.95
2023-04-09T12:21:58.342Z,6.03
2023-04-09T12:25:42.151Z,6.50
2023-04-09T12:29:25.899Z,5.75
2023-04-09T12:33:10.260Z,5.68
2023-04-09T12:36:52.748Z,5.78
2023-04-09T12:40:36.434Z,6.28
2023-04-09T12:44:18.139Z,5.57
2023-04-09T12:47:59.991Z,5.80
2023-04-09T12:51:41.735Z,5.03
2023-04-09T12:55:23.448Z,4.85
2023-04-09T12:59:05.992Z,5.30
2023-04-09T13:02:47.961Z,5.82
2023-04-09T13:06:29.840Z,5.32
2023-04-09T13:10:11.546Z,5.00
2023-04-09T13:13:53.705Z,4.80
2023-04-09T13:17:35.765Z,4.40
2023-04-09T13:21:18.839Z,5.10
2023-04-09T13:25:00.740Z,5.47
2023-04-09T13:28:42.441Z,4.80
2023-04-09T13:32:24.421Z,4.05
2023-04-09T13:36:06.711Z,4.43
2023-04-09T13:39:48.438Z,3.88
2023-04-09T13:43:30.186Z,3.88
2023-04-09T13:47:13.220Z,4.07
2023-04-09T13:50:55.018Z,3.90
2023-04-09T13:54:37.409Z,4.00
2023-04-09T13:58:20.044Z,4.28
2023-04-09T14:02:02.153Z,4.03
2023-04-09T14:05:43.931Z,3.90
2023-04-09T14:09:25.643Z,3.88
2023-04-09T14:13:10.476Z,3.63
2023-04-09T14:16:52.163Z,3.88
2023-04-09T14:20:35.530Z,3.70
2023-04-09T14:24:17.291Z,3.67
2023-04-09T14:27:59.111Z,3.83
2023-04-09T14:31:42.646Z,4.18
2023-04-09T14:35:24.618Z,4.07
2023-04-09T14:39:06.451Z,4.07
2023-04-09T14:42:48.594Z,4.13
2023-04-09T14:46:30.355Z,4.20
2023-04-09T14:50:12.898Z,4.50
2023-04-09T14:53:54.751Z,4.57
2023-04-09T14:57:36.685Z,4.45
2023-04-09T15:01:18.753Z,5.00
2023-04-09T15:05:01.066Z,5.32
2023-04-09T15:08:42.799Z,5.30
2023-04-09T15:12:24.640Z,4.47
2023-04-09T15:16:06.969Z,5.10
2023-04-09T15:19:48.768Z,5.35
2023-04-09T15:23:30.694Z,5.10
2023-04-09T15:27:12.418Z,5.20
2023-04-09T15:30:54.970Z,5.80
2023-04-09T15:34:36.866Z,5.18
2023-04-09T15:38:21.403Z,5.65
2023-04-09T15:42:03.339Z,5.22
2023-04-09T15:45:45.305Z,5.68
2023-04-09T15:49:27.136Z,5.35
2023-04-09T15:53:08.916Z,5.50
2023-04-09T15:56:50.624Z,6.07
2023-04-09T16:00:32.312Z,6.47
2023-04-09T16:04:15.406Z,6.30
2023-04-09T16:07:59.733Z,6.40
2023-04-09T16:11:41.759Z,7.18
2023-04-09T16:15:23.442Z,5.40
2023-04-09T16:19:05.317Z,5.00
2023-04-09T16:22:47.239Z,5.55
2023-04-09T16:26:28.986Z,5.82
2023-04-09T16:30:11.175Z,6.07
2023-04-09T16:33:52.973Z,5.60
2023-04-09T16:37:35.301Z,5.95
2023-04-09T16:41:17.011Z,6.88
2023-04-09T16:44:58.705Z,5.75
2023-04-09T16:48:41.753Z,5.60
2023-04-09T16:52:23.648Z,6.10
2023-04-09T16:56:06.637Z,6.22
2023-04-09T16:59:48.424Z,6.88
2023-04-09T17:03:30.558Z,6.88
2023-04-09T17:07:12.418Z,6.55
2023-04-09T17:11:01.747Z,6.90
2023-04-09T17:14:44.432Z,7.00
2023-04-09T17:18:26.405Z,6.97
2023-04-09T17:22:09.279Z,7.80
2023-04-09T17:25:51.004Z,7.45
2023-04-09T17:29:32.713Z,8.02
2023-04-09T17:33:14.628Z,8.23
2023-04-09T17:36:57.311Z,7.78
2023-04-09T17:40:39.089Z,8.52
2023-04-09T17:44:20.828Z,8.15
2023-04-09T17:48:02.909Z,8.30
2023-04-09T17:51:44.680Z,8.43
2023-04-09T17:55:27.264Z,8.32
2023-04-09T17:59:08.949Z,8.52
2023-04-09T18:02:54.437Z,8.73
2023-04-09T18:06:36.335Z,9.13
2023-04-09T18:10:18.097Z,9.23
2023-04-09T18:13:59.830Z,9.15
2023-04-09T18:17:41.718Z,9.73
2023-04-09T18:21:24.775Z,9.38
2023-04-09T18:25:07.221Z,11.40
2023-04-09T18:28:48.979Z,12.02
2023-04-09T18:32:31.064Z,10.43
2023-04-09T18:36:12.902Z,10.18
2023-04-09T18:39:54.744Z,9.55
2023-04-09T18:43:36.563Z,9.73
2023-04-09T18:47:18.392Z,11.13
2023-04-09T18:51:02.973Z,10.88
2023-04-09T18:54:44.679Z,9.95
2023-04-09T18:58:26.691Z,11.25
2023-04-09T19:02:08.655Z,11.80
2023-04-09T19:05:51.453Z,10.73
2023-04-09T19:09:33.608Z,10.20
2023-04-09T19:13:15.358Z,11.82
2023-04-09T19:16:58.671Z,15.35
2023-04-09T19:20:40.444Z,11.75
2023-04-09T19:24:22.166Z,12.95
2023-04-09T19:28:03.849Z,13.35
2023-04-09T19:31:46.384Z,14.10
2023-04-09T19:35:28.606Z,14.40
2023-04-09T19:39:11.079Z,13.70
2023-04-09T19:42:52.767Z,13.27
2023-04-09T19:46:34.669Z,13.57
2023-04-09T19:50:16.744Z,14.70
2023-04-09T19:53:58.497Z,14.00
2023-04-09T19:57:40.889Z,15.00
2023-04-09T20:01:22.811Z,15.82
2023-04-09T20:05:04.855Z,15.35
2023-04-09T20:08:46.723Z,15.70
2023-04-09T20:12:29.504Z,15.52
2023-04-09T20:16:11.300Z,14.95
2023-04-09T20:19:53.508Z,15.63
2023-04-09T20:23:35.658Z,15.63
2023-04-09T20:27:18.489Z,14.65
2023-04-09T20:31:03.078Z,14.95
2023-04-09T20:34:44.843Z,15.40
2023-04-09T20:38:26.648Z,15.98
2023-04-09T20:42:08.324Z,16.15
2023-04-09T20:45:50.178Z,16.00
2023-04-09T20:49:31.992Z,16.25
2023-04-09T20:53:13.753Z,17.98
2023-04-09T20:56:55.926Z,16.60
2023-04-09T21:00:37.642Z,17.80
2023-04-09T21:04:19.593Z,16.42
2023-04-09T21:08:01.508Z,16.88
2023-04-09T21:11:43.253Z,16.42
2023-04-09T21:15:25.205Z,16.30
2023-04-09T21:19:07.228Z,16.83
2023-04-09T21:22:49.010Z,17.05
2023-04-09T21:26:38.643Z,17.05
2023-04-09T21:30:32.273Z,15.45
2023-04-09T21:34:14.089Z,16.38
2023-04-09T21:37:56.730Z,16.35
2023-04-09T21:41:39.300Z,16.20
2023-04-09T21:45:21.170Z,17.33
2023-04-09T21:49:03.627Z,16.33
2023-04-09T21:52:46.775Z,17.25
2023-04-09T21:56:28.476Z,16.65
2023-04-09T22:00:11.100Z,17.65
2023-04-09T22:03:52.959Z,17.92
2023-04-09T22:07:37.204Z,18.63
2023-04-09T22:11:19.522Z,18.80
2023-04-09T22:15:01.473Z,18.75
2023-04-09T22:18:43.160Z,19.77
2023-04-09T22:22:25.039Z,20.05
2023-04-09T22:26:06.856Z,20.58
2023-04-09T22:29:48.555Z,19.98
2023-04-09T22:33:30.432Z,21.23
2023-04-09T22:37:12.436Z,20.58
2023-04-09T22:40:57.030Z,20.10
2023-04-09T22:44:40.058Z,21.70
2023-04-09T22:48:22.790Z,21.42
2023-04-09T22:52:05.561Z,21.65
2023-04-09T22:55:50.751Z,21.33
2023-04-09T22:59:40.015Z,21.60
2023-04-09T23:03:22.675Z,20.63
2023-04-09T23:07:04.728Z,21.52
2023-04-09T23:10:46.532Z,21.63
2023-04-09T23:14:28.317Z,20.30
2023-04-09T23:18:10.895Z,20.98
2023-04-09T23:21:52.632Z,20.63
2023-04-09T23:25:34.459Z,17.95
2023-04-09T23:29:16.156Z,20.42
2023-04-09T23:32:58.225Z,17.63
2023-04-09T23:36:40.044Z,17.77
2023-04-09T23:40:21.893Z,16.83
2023-04-09T23:44:03.776Z,15.63
2023-04-09T23:47:46.193Z,14.20
2023-04-09T23:51:27.981Z,13.05
2023-04-09T23:55:10.758Z,13.43
2023-04-09T23:58:52.528Z,11.07
